Terminal Aerodrome Forecast
Issued by NWS

Home | Current Version | Previous Version | Text Only | Print | Product List | Glossary Off
Versions: 1 2 3 4 5 6 7 8 9 10 11 12 13

649
FTUS43 KICT 142342
TAFHUT
TAF
KHUT 142342Z 1500/1524 34017G26KT P6SM SCT040 OVC060
     FM150200 34026G35KT P6SM SCT020 OVC080
     FM150400 34017G26KT P6SM SKC=

USA.gov is the U.S. government's official web portal to all federal, state and local government web resources and services.